sensor_id;sensor_type;location;lat;lon;timestamp;pressure;altitude;pressure_sealevel;temperature;humidity
12172;BME280;6149;52.418;13.668;2023-07-09T00:02:14;101595.25;;;18.13;73.00
12172;BME280;6149;52.418;13.668;2023-07-09T00:04:41;101597.50;;;18.06;73.58
12172;BME280;6149;52.418;13.668;2023-07-09T00:07:15;101597.25;;;17.96;74.55
12172;BME280;6149;52.418;13.668;2023-07-09T00:09:44;101602.25;;;17.88;75.24
12172;BME280;6149;52.418;13.668;2023-07-09T00:12:15;101599.88;;;17.84;74.49
12172;BME280;6149;52.418;13.668;2023-07-09T00:14:43;101610.06;;;17.79;75.35
12172;BME280;6149;52.418;13.668;2023-07-09T00:17:11;101601.50;;;17.74;75.78
12172;BME280;6149;52.418;13.668;2023-07-09T00:19:45;101611.84;;;17.65;75.89
12172;BME280;6149;52.418;13.668;2023-07-09T00:22:15;101610.41;;;17.60;76.32
12172;BME280;6149;52.418;13.668;2023-07-09T00:24:42;101605.56;;;17.52;76.73
12172;BME280;6149;52.418;13.668;2023-07-09T00:27:10;101607.66;;;17.47;76.96
12172;BME280;6149;52.418;13.668;2023-07-09T00:29:37;101606.28;;;17.42;77.26
12172;BME280;6149;52.418;13.668;2023-07-09T00:32:10;101609.25;;;17.37;77.79
12172;BME280;6149;52.418;13.668;2023-07-09T00:34:40;101611.56;;;17.29;78.46
12172;BME280;6149;52.418;13.668;2023-07-09T00:37:10;101602.22;;;17.22;79.21
12172;BME280;6149;52.418;13.668;2023-07-09T00:39:38;101602.72;;;17.14;79.78
12172;BME280;6149;52.418;13.668;2023-07-09T00:42:07;101605.91;;;17.07;79.72
12172;BME280;6149;52.418;13.668;2023-07-09T00:44:40;101593.69;;;17.02;80.42
12172;BME280;6149;52.418;13.668;2023-07-09T00:47:18;101605.53;;;16.98;80.41
12172;BME280;6149;52.418;13.668;2023-07-09T00:50:10;101601.34;;;16.94;80.45
12172;BME280;6149;52.418;13.668;2023-07-09T00:52:46;101590.66;;;16.94;80.38
12172;BME280;6149;52.418;13.668;2023-07-09T00:55:23;101586.16;;;16.95;80.86
12172;BME280;6149;52.418;13.668;2023-07-09T00:57:55;101588.94;;;16.93;80.26
12172;BME280;6149;52.418;13.668;2023-07-09T01:00:28;101582.81;;;16.91;80.90
12172;BME280;6149;52.418;13.668;2023-07-09T01:03:02;101578.63;;;16.87;81.59
12172;BME280;6149;52.418;13.668;2023-07-09T01:05:30;101577.97;;;16.84;81.99
12172;BME280;6149;52.418;13.668;2023-07-09T01:07:57;101583.22;;;16.85;82.41
12172;BME280;6149;52.418;13.668;2023-07-09T01:10:24;101585.13;;;16.83;82.73
12172;BME280;6149;52.418;13.668;2023-07-09T01:12:51;101580.91;;;16.79;83.54
12172;BME280;6149;52.418;13.668;2023-07-09T01:15:17;101578.53;;;16.75;83.13
12172;BME280;6149;52.418;13.668;2023-07-09T01:17:44;101575.19;;;16.71;83.92
12172;BME280;6149;52.418;13.668;2023-07-09T01:20:16;101577.88;;;16.71;84.12
12172;BME280;6149;52.418;13.668;2023-07-09T01:22:48;101573.72;;;16.67;83.90
12172;BME280;6149;52.418;13.668;2023-07-09T01:25:15;101579.25;;;16.64;83.76
12172;BME280;6149;52.418;13.668;2023-07-09T01:27:44;101580.53;;;16.57;85.37
12172;BME280;6149;52.418;13.668;2023-07-09T01:30:14;101576.25;;;16.54;85.34
12172;BME280;6149;52.418;13.668;2023-07-09T01:32:47;101578.53;;;16.46;86.75
12172;BME280;6149;52.418;13.668;2023-07-09T01:35:17;101585.09;;;16.41;87.77
12172;BME280;6149;52.418;13.668;2023-07-09T01:37:45;101584.53;;;16.35;87.93
12172;BME280;6149;52.418;13.668;2023-07-09T01:40:16;101584.94;;;16.29;88.44
12172;BME280;6149;52.418;13.668;2023-07-09T01:42:44;101581.88;;;16.21;89.09
12172;BME280;6149;52.418;13.668;2023-07-09T01:45:12;101587.47;;;16.17;88.56
12172;BME280;6149;52.418;13.668;2023-07-09T01:47:40;101586.13;;;16.10;89.37
12172;BME280;6149;52.418;13.668;2023-07-09T01:50:08;101584.78;;;16.02;90.01
12172;BME280;6149;52.418;13.668;2023-07-09T01:52:36;101581.72;;;15.94;90.21
12172;BME280;6149;52.418;13.668;2023-07-09T01:55:05;101580.28;;;15.89;90.34
12172;BME280;6149;52.418;13.668;2023-07-09T01:57:34;101577.72;;;15.87;90.84
12172;BME280;6149;52.418;13.668;2023-07-09T02:00:03;101579.59;;;15.85;90.66
12172;BME280;6149;52.418;13.668;2023-07-09T02:02:31;101583.31;;;15.83;90.80
12172;BME280;6149;52.418;13.668;2023-07-09T02:04:58;101581.88;;;15.77;92.04
12172;BME280;6149;52.418;13.668;2023-07-09T02:07:26;101586.50;;;15.74;91.96
12172;BME280;6149;52.418;13.668;2023-07-09T02:09:52;101588.31;;;15.73;92.33
12172;BME280;6149;52.418;13.668;2023-07-09T02:12:19;101575.06;;;15.71;92.77
12172;BME280;6149;52.418;13.668;2023-07-09T02:14:48;101576.19;;;15.67;93.67
12172;BME280;6149;52.418;13.668;2023-07-09T02:17:15;101579.81;;;15.66;92.77
12172;BME280;6149;52.418;13.668;2023-07-09T02:19:42;101577.31;;;15.63;93.22
12172;BME280;6149;52.418;13.668;2023-07-09T02:22:10;101585.41;;;15.62;92.81
12172;BME280;6149;52.418;13.668;2023-07-09T02:24:37;101578.19;;;15.64;92.99
12172;BME280;6149;52.418;13.668;2023-07-09T02:27:06;101585.31;;;15.63;93.56
12172;BME280;6149;52.418;13.668;2023-07-09T02:29:34;101585.72;;;15.57;93.84
12172;BME280;6149;52.418;13.668;2023-07-09T02:32:03;101587.56;;;15.55;93.63
12172;BME280;6149;52.418;13.668;2023-07-09T02:34:30;101590.31;;;15.54;93.72
12172;BME280;6149;52.418;13.668;2023-07-09T02:36:58;101588.69;;;15.51;94.06
12172;BME280;6149;52.418;13.668;2023-07-09T02:39:25;101590.00;;;15.44;94.59
12172;BME280;6149;52.418;13.668;2023-07-09T02:41:53;101589.22;;;15.42;94.64
12172;BME280;6149;52.418;13.668;2023-07-09T02:44:19;101589.56;;;15.36;95.00
12172;BME280;6149;52.418;13.668;2023-07-09T02:46:46;101581.16;;;15.28;95.43
12172;BME280;6149;52.418;13.668;2023-07-09T02:49:15;101593.88;;;15.23;95.64
12172;BME280;6149;52.418;13.668;2023-07-09T02:51:42;101586.94;;;15.20;96.31
12172;BME280;6149;52.418;13.668;2023-07-09T02:54:08;101584.28;;;15.20;96.69
12172;BME280;6149;52.418;13.668;2023-07-09T02:56:35;101590.53;;;15.19;96.27
12172;BME280;6149;52.418;13.668;2023-07-09T02:59:02;101592.25;;;15.20;95.94
12172;BME280;6149;52.418;13.668;2023-07-09T03:01:29;101592.25;;;15.20;96.37
12172;BME280;6149;52.418;13.668;2023-07-09T03:03:57;101586.94;;;15.20;98.45
12172;BME280;6149;52.418;13.668;2023-07-09T03:06:26;101578.25;;;15.17;99.92
12172;BME280;6149;52.418;13.668;2023-07-09T03:08:53;101582.97;;;15.12;99.01
12172;BME280;6149;52.418;13.668;2023-07-09T03:11:20;101588.47;;;15.09;100.00
12172;BME280;6149;52.418;13.668;2023-07-09T03:13:48;101582.28;;;15.08;100.00
12172;BME280;6149;52.418;13.668;2023-07-09T03:16:15;101584.53;;;15.00;100.00
12172;BME280;6149;52.418;13.668;2023-07-09T03:18:44;101594.66;;;14.93;99.52
12172;BME280;6149;52.418;13.668;2023-07-09T03:21:11;101596.78;;;14.87;100.00
12172;BME280;6149;52.418;13.668;2023-07-09T03:23:39;101601.44;;;14.83;100.00
12172;BME280;6149;52.418;13.668;2023-07-09T03:26:05;101603.34;;;14.81;100.00
12172;BME280;6149;52.418;13.668;2023-07-09T03:28:32;101606.16;;;14.78;100.00
12172;BME280;6149;52.418;13.668;2023-07-09T03:30:59;101602.81;;;14.75;100.00
12172;BME280;6149;52.418;13.668;2023-07-09T03:33:26;101607.28;;;14.74;100.00
12172;BME280;6149;52.418;13.668;2023-07-09T03:35:53;101611.66;;;14.75;100.00
12172;BME280;6149;52.418;13.668;2023-07-09T03:38:20;101614.06;;;14.80;100.00
12172;BME280;6149;52.418;13.668;2023-07-09T03:40:51;101603.16;;;14.84;100.00
12172;BME280;6149;52.418;13.668;2023-07-09T03:43:18;101606.84;;;14.82;100.00
12172;BME280;6149;52.418;13.668;2023-07-09T03:45:46;101609.53;;;14.82;100.00
12172;BME280;6149;52.418;13.668;2023-07-09T03:48:14;101602.31;;;14.84;100.00
12172;BME280;6149;52.418;13.668;2023-07-09T03:50:44;101609.16;;;14.88;100.00
12172;BME280;6149;52.418;13.668;2023-07-09T03:53:12;101612.34;;;14.94;100.00
12172;BME280;6149;52.418;13.668;2023-07-09T03:55:40;101614.31;;;14.91;100.00
12172;BME280;6149;52.418;13.668;2023-07-09T03:58:08;101611.75;;;14.89;100.00
12172;BME280;6149;52.418;13.668;2023-07-09T04:00:35;101618.09;;;14.87;100.00
12172;BME280;6149;52.418;13.668;2023-07-09T04:03:02;101616.38;;;14.86;100.00
12172;BME280;6149;52.418;13.668;2023-07-09T04:05:28;101616.19;;;14.89;100.00
12172;BME280;6149;52.418;13.668;2023-07-09T04:07:55;101615.88;;;14.95;100.00
12172;BME280;6149;52.418;13.668;2023-07-09T04:10:22;101613.91;;;14.98;100.00
12172;BME280;6149;52.418;13.668;2023-07-09T04:12:48;101616.56;;;14.98;100.00
12172;BME280;6149;52.418;13.668;2023-07-09T04:15:17;101620.88;;;15.01;100.00
12172;BME280;6149;52.418;13.668;2023-07-09T04:17:44;101621.38;;;15.08;100.00
12172;BME280;6149;52.418;13.668;2023-07-09T04:20:11;101622.00;;;15.13;100.00
12172;BME280;6149;52.418;13.668;2023-07-09T04:22:38;101620.72;;;15.20;100.00
12172;BME280;6149;52.418;13.668;2023-07-09T04:25:06;101621.19;;;15.26;100.00
12172;BME280;6149;52.418;13.668;2023-07-09T04:27:36;101622.84;;;15.29;100.00
12172;BME280;6149;52.418;13.668;2023-07-09T04:30:03;101629.63;;;15.34;100.00
12172;BME280;6149;52.418;13.668;2023-07-09T04:32:32;101627.56;;;15.39;100.00
12172;BME280;6149;52.418;13.668;2023-07-09T04:34:59;101626.38;;;15.45;100.00
12172;BME280;6149;52.418;13.668;2023-07-09T04:37:25;101622.31;;;15.54;100.00
12172;BME280;6149;52.418;13.668;2023-07-09T04:39:52;101629.78;;;15.63;100.00
12172;BME280;6149;52.418;13.668;2023-07-09T04:42:20;101623.00;;;15.73;100.00
12172;BME280;6149;52.418;13.668;2023-07-09T04:44:47;101632.28;;;15.82;100.00
12172;BME280;6149;52.418;13.668;2023-07-09T04:47:14;101627.34;;;15.90;100.00
12172;BME280;6149;52.418;13.668;2023-07-09T04:49:43;101629.34;;;16.00;100.00
12172;BME280;6149;52.418;13.668;2023-07-09T04:52:09;101630.72;;;16.08;100.00
12172;BME280;6149;52.418;13.668;2023-07-09T04:57:08;101641.16;;;16.26;100.00
12172;BME280;6149;52.418;13.668;2023-07-09T04:59:35;101635.25;;;16.35;100.00
12172;BME280;6149;52.418;13.668;2023-07-09T05:02:02;101630.22;;;16.45;100.00
12172;BME280;6149;52.418;13.668;2023-07-09T05:04:30;101634.91;;;16.56;100.00
12172;BME280;6149;52.418;13.668;2023-07-09T05:06:58;101636.09;;;16.66;100.00
12172;BME280;6149;52.418;13.668;2023-07-09T05:09:25;101633.78;;;16.88;100.00
12172;BME280;6149;52.418;13.668;2023-07-09T05:11:52;101637.59;;;16.98;100.00
12172;BME280;6149;52.418;13.668;2023-07-09T05:14:19;101639.38;;;17.12;99.52
12172;BME280;6149;52.418;13.668;2023-07-09T05:16:45;101633.06;;;17.27;96.66
12172;BME280;6149;52.418;13.668;2023-07-09T05:19:12;101634.84;;;17.41;94.71
12172;BME280;6149;52.418;13.668;2023-07-09T05:21:38;101635.72;;;17.54;95.02
12172;BME280;6149;52.418;13.668;2023-07-09T05:24:07;101638.94;;;17.74;91.05
12172;BME280;6149;52.418;13.668;2023-07-09T05:26:34;101638.97;;;17.86;91.84
12172;BME280;6149;52.418;13.668;2023-07-09T05:29:02;101641.16;;;18.07;91.02
12172;BME280;6149;52.418;13.668;2023-07-09T05:31:29;101622.34;;;18.33;86.81
12172;BME280;6149;52.418;13.668;2023-07-09T05:33:56;101629.88;;;18.54;86.34
12172;BME280;6149;52.418;13.668;2023-07-09T05:36:22;101627.63;;;18.73;86.63
12172;BME280;6149;52.418;13.668;2023-07-09T05:38:49;101627.19;;;18.92;83.57
12172;BME280;6149;52.418;13.668;2023-07-09T05:41:17;101631.59;;;19.29;79.61
12172;BME280;6149;52.418;13.668;2023-07-09T05:43:44;101633.34;;;19.42;78.93
12172;BME280;6149;52.418;13.668;2023-07-09T05:46:12;101645.78;;;19.55;80.16
12172;BME280;6149;52.418;13.668;2023-07-09T05:48:39;101649.13;;;19.70;78.99
12172;BME280;6149;52.418;13.668;2023-07-09T05:51:06;101650.00;;;19.94;73.98
12172;BME280;6149;52.418;13.668;2023-07-09T05:53:32;101649.47;;;20.24;72.70
12172;BME280;6149;52.418;13.668;2023-07-09T05:55:59;101646.38;;;20.53;70.20
12172;BME280;6149;52.418;13.668;2023-07-09T05:58:27;101644.94;;;20.93;69.15
12172;BME280;6149;52.418;13.668;2023-07-09T06:00:54;101643.78;;;21.18;69.84
12172;BME280;6149;52.418;13.668;2023-07-09T06:03:23;101650.78;;;21.43;68.48
12172;BME280;6149;52.418;13.668;2023-07-09T06:05:52;101647.25;;;21.75;68.13
12172;BME280;6149;52.418;13.668;2023-07-09T06:08:18;101649.47;;;22.01;65.08
12172;BME280;6149;52.418;13.668;2023-07-09T06:10:52;101649.16;;;22.37;66.34
12172;BME280;6149;52.418;13.668;2023-07-09T06:13:21;101643.41;;;22.72;59.84
12172;BME280;6149;52.418;13.668;2023-07-09T06:15:50;101644.97;;;23.05;61.59
12172;BME280;6149;52.418;13.668;2023-07-09T06:18:18;101640.69;;;23.32;62.36
12172;BME280;6149;52.418;13.668;2023-07-09T06:20:49;101647.59;;;23.65;56.05
12172;BME280;6149;52.418;13.668;2023-07-09T06:23:16;101651.00;;;23.87;56.73
12172;BME280;6149;52.418;13.668;2023-07-09T06:25:43;101650.00;;;24.07;56.12
12172;BME280;6149;52.418;13.668;2023-07-09T06:28:14;101652.53;;;24.18;52.87
12172;BME280;6149;52.418;13.668;2023-07-09T06:30:46;101640.03;;;24.37;53.59
12172;BME280;6149;52.418;13.668;2023-07-09T06:33:16;101643.38;;;24.58;53.73
12172;BME280;6149;52.418;13.668;2023-07-09T06:35:48;101648.03;;;24.75;53.55
12172;BME280;6149;52.418;13.668;2023-07-09T06:38:18;101657.41;;;24.81;51.72
12172;BME280;6149;52.418;13.668;2023-07-09T06:40:45;101651.66;;;25.03;51.65
12172;BME280;6149;52.418;13.668;2023-07-09T06:43:14;101656.81;;;25.24;51.99
12172;BME280;6149;52.418;13.668;2023-07-09T06:45:48;101661.81;;;25.46;50.68
12172;BME280;6149;52.418;13.668;2023-07-09T06:48:17;101659.53;;;25.69;51.55
12172;BME280;6149;52.418;13.668;2023-07-09T06:50:44;101660.63;;;25.76;49.16
12172;BME280;6149;52.418;13.668;2023-07-09T06:53:10;101663.56;;;25.83;48.62
12172;BME280;6149;52.418;13.668;2023-07-09T06:55:37;101663.75;;;25.99;49.31
12172;BME280;6149;52.418;13.668;2023-07-09T06:58:03;101665.03;;;26.30;49.64
12172;BME280;6149;52.418;13.668;2023-07-09T07:00:30;101659.72;;;26.47;49.73
12172;BME280;6149;52.418;13.668;2023-07-09T07:02:57;101666.06;;;26.55;47.01
12172;BME280;6149;52.418;13.668;2023-07-09T07:05:25;101666.34;;;26.70;46.66
12172;BME280;6149;52.418;13.668;2023-07-09T07:07:52;101665.16;;;26.73;46.07
12172;BME280;6149;52.418;13.668;2023-07-09T07:10:19;101663.34;;;27.07;45.23
12172;BME280;6149;52.418;13.668;2023-07-09T07:12:47;101666.53;;;27.03;45.21
12172;BME280;6149;52.418;13.668;2023-07-09T07:15:16;101668.88;;;26.98;46.58
12172;BME280;6149;52.418;13.668;2023-07-09T07:17:43;101668.88;;;26.98;45.71
12172;BME280;6149;52.418;13.668;2023-07-09T07:20:12;101668.88;;;26.98;45.20
12172;BME280;6149;52.418;13.668;2023-07-09T07:22:40;101673.34;;;27.07;45.64
12172;BME280;6149;52.418;13.668;2023-07-09T07:25:08;101674.47;;;27.38;44.21
12172;BME280;6149;52.418;13.668;2023-07-09T07:27:36;101676.22;;;27.47;43.71
12172;BME280;6149;52.418;13.668;2023-07-09T07:30:04;101665.41;;;27.72;44.66
12172;BME280;6149;52.418;13.668;2023-07-09T07:32:34;101664.56;;;27.71;43.94
12172;BME280;6149;52.418;13.668;2023-07-09T07:35:02;101670.53;;;27.83;45.89
12172;BME280;6149;52.418;13.668;2023-07-09T07:37:29;101668.16;;;28.04;44.38
12172;BME280;6149;52.418;13.668;2023-07-09T07:39:57;101668.34;;;28.27;43.96
12172;BME280;6149;52.418;13.668;2023-07-09T07:42:23;101665.13;;;28.48;44.35
12172;BME280;6149;52.418;13.668;2023-07-09T07:44:50;101668.09;;;28.77;42.62
12172;BME280;6149;52.418;13.668;2023-07-09T07:47:17;101669.97;;;28.77;42.25
12172;BME280;6149;52.418;13.668;2023-07-09T07:49:44;101662.50;;;28.62;42.38
12172;BME280;6149;52.418;13.668;2023-07-09T07:52:10;101662.69;;;28.61;41.62
12172;BME280;6149;52.418;13.668;2023-07-09T07:54:37;101663.88;;;28.67;42.08
12172;BME280;6149;52.418;13.668;2023-07-09T07:57:05;101664.91;;;28.82;43.31
12172;BME280;6149;52.418;13.668;2023-07-09T07:59:34;101661.97;;;28.91;43.05
12172;BME280;6149;52.418;13.668;2023-07-09T08:02:01;101675.03;;;29.04;41.64
12172;BME280;6149;52.418;13.668;2023-07-09T08:04:28;101668.28;;;29.31;39.94
12172;BME280;6149;52.418;13.668;2023-07-09T08:06:54;101665.72;;;29.30;42.12
12172;BME280;6149;52.418;13.668;2023-07-09T08:09:21;101672.63;;;29.48;42.10
12172;BME280;6149;52.418;13.668;2023-07-09T08:11:48;101664.97;;;29.75;42.04
12172;BME280;6149;52.418;13.668;2023-07-09T08:14:16;101665.88;;;29.90;41.37
12172;BME280;6149;52.418;13.668;2023-07-09T08:16:43;101663.78;;;30.00;41.64
12172;BME280;6149;52.418;13.668;2023-07-09T08:19:10;101669.16;;;30.08;40.31
12172;BME280;6149;52.418;13.668;2023-07-09T08:21:36;101671.09;;;30.22;39.90
12172;BME280;6149;52.418;13.668;2023-07-09T08:24:03;101675.16;;;30.26;40.50
12172;BME280;6149;52.418;13.668;2023-07-09T08:26:31;101674.63;;;30.46;39.05
12172;BME280;6149;52.418;13.668;2023-07-09T08:28:58;101677.66;;;30.51;38.69
12172;BME280;6149;52.418;13.668;2023-07-09T08:31:25;101673.84;;;30.60;36.98
12172;BME280;6149;52.418;13.668;2023-07-09T08:33:52;101674.38;;;30.55;38.89
12172;BME280;6149;52.418;13.668;2023-07-09T08:36:19;101667.66;;;30.81;38.88
12172;BME280;6149;52.418;13.668;2023-07-09T08:38:45;101670.38;;;30.66;37.01
12172;BME280;6149;52.418;13.668;2023-07-09T08:41:24;101672.47;;;30.79;36.69
12172;BME280;6149;52.418;13.668;2023-07-09T08:44:30;101670.00;;;30.99;37.79
12172;BME280;6149;52.418;13.668;2023-07-09T08:47:08;101665.38;;;30.99;37.44
12172;BME280;6149;52.418;13.668;2023-07-09T08:52:26;101657.41;;;31.12;36.03
12172;BME280;6149;52.418;13.668;2023-07-09T08:54:57;101655.19;;;30.93;37.32
12172;BME280;6149;52.418;13.668;2023-07-09T08:57:29;101659.94;;;31.14;36.71
12172;BME280;6149;52.418;13.668;2023-07-09T09:00:01;101655.44;;;31.42;36.71
12172;BME280;6149;52.418;13.668;2023-07-09T09:02:35;101661.31;;;31.61;36.03
12172;BME280;6149;52.418;13.668;2023-07-09T09:05:06;101657.34;;;31.63;33.53
12172;BME280;6149;52.418;13.668;2023-07-09T09:07:39;101665.69;;;31.91;33.72
12172;BME280;6149;52.418;13.668;2023-07-09T09:10:12;101663.19;;;31.96;33.60
12172;BME280;6149;52.418;13.668;2023-07-09T09:12:51;101665.47;;;32.14;33.89
12172;BME280;6149;52.418;13.668;2023-07-09T09:15:24;101655.31;;;32.29;32.83
12172;BME280;6149;52.418;13.668;2023-07-09T09:17:56;101655.53;;;32.34;31.64
12172;BME280;6149;52.418;13.668;2023-07-09T09:20:27;101650.22;;;32.54;31.89
12172;BME280;6149;52.418;13.668;2023-07-09T09:23:01;101656.84;;;32.66;33.83
12172;BME280;6149;52.418;13.668;2023-07-09T09:25:39;101649.75;;;32.78;32.55
12172;BME280;6149;52.418;13.668;2023-07-09T09:28:07;101659.31;;;32.89;31.02
12172;BME280;6149;52.418;13.668;2023-07-09T09:30:34;101657.91;;;33.00;31.83
12172;BME280;6149;52.418;13.668;2023-07-09T09:33:06;101663.00;;;33.09;31.49
12172;BME280;6149;52.418;13.668;2023-07-09T09:35:36;101657.50;;;33.09;31.23
12172;BME280;6149;52.418;13.668;2023-07-09T09:38:10;101657.25;;;33.39;31.33
12172;BME280;6149;52.418;13.668;2023-07-09T09:40:37;101662.84;;;33.24;30.84
12172;BME280;6149;52.418;13.668;2023-07-09T09:43:11;101664.63;;;33.32;30.54
12172;BME280;6149;52.418;13.668;2023-07-09T09:45:41;101670.31;;;33.30;29.75
12172;BME280;6149;52.418;13.668;2023-07-09T09:48:14;101664.34;;;33.27;31.34
12172;BME280;6149;52.418;13.668;2023-07-09T09:50:45;101658.94;;;33.46;30.44
12172;BME280;6149;52.418;13.668;2023-07-09T09:53:19;101655.91;;;33.82;32.01
12172;BME280;6149;52.418;13.668;2023-07-09T09:55:48;101667.34;;;34.12;30.47
12172;BME280;6149;52.418;13.668;2023-07-09T09:58:19;101661.88;;;34.39;30.12
12172;BME280;6149;52.418;13.668;2023-07-09T10:00:51;101670.94;;;34.33;27.97
12172;BME280;6149;52.418;13.668;2023-07-09T10:03:20;101672.22;;;34.30;27.50
12172;BME280;6149;52.418;13.668;2023-07-09T10:05:51;101667.31;;;34.19;28.00
12172;BME280;6149;52.418;13.668;2023-07-09T10:08:29;101661.25;;;34.37;28.47
12172;BME280;6149;52.418;13.668;2023-07-09T10:11:08;101665.44;;;34.00;27.38
12172;BME280;6149;52.418;13.668;2023-07-09T10:13:43;101663.25;;;33.75;28.93
12172;BME280;6149;52.418;13.668;2023-07-09T10:16:18;101664.13;;;33.82;28.58
12172;BME280;6149;52.418;13.668;2023-07-09T10:18:54;101665.38;;;33.73;27.73
12172;BME280;6149;52.418;13.668;2023-07-09T10:21:33;101662.75;;;33.39;27.61
12172;BME280;6149;52.418;13.668;2023-07-09T10:24:12;101666.53;;;33.44;28.82
12172;BME280;6149;52.418;13.668;2023-07-09T10:26:52;101663.25;;;33.21;28.78
12172;BME280;6149;52.418;13.668;2023-07-09T10:29:34;101655.38;;;32.98;28.19
12172;BME280;6149;52.418;13.668;2023-07-09T10:32:14;101653.75;;;32.76;29.49
12172;BME280;6149;52.418;13.668;2023-07-09T10:34:57;101653.06;;;32.39;30.05
12172;BME280;6149;52.418;13.668;2023-07-09T10:37:44;101653.38;;;32.23;31.00
12172;BME280;6149;52.418;13.668;2023-07-09T10:40:31;101652.75;;;32.06;29.50
12172;BME280;6149;52.418;13.668;2023-07-09T10:43:01;101654.47;;;31.86;30.20
12172;BME280;6149;52.418;13.668;2023-07-09T10:45:32;101656.47;;;31.77;31.18
12172;BME280;6149;52.418;13.668;2023-07-09T10:48:08;101650.13;;;31.55;31.86
12172;BME280;6149;52.418;13.668;2023-07-09T10:50:42;101646.31;;;31.56;30.91
12172;BME280;6149;52.418;13.668;2023-07-09T10:53:24;101644.97;;;31.46;30.37
12172;BME280;6149;52.418;13.668;2023-07-09T10:56:00;101642.13;;;31.18;30.19
12172;BME280;6149;52.418;13.668;2023-07-09T10:58:35;101639.47;;;31.10;31.80
12172;BME280;6149;52.418;13.668;2023-07-09T11:01:06;101639.84;;;31.07;30.34
12172;BME280;6149;52.418;13.668;2023-07-09T11:03:39;101633.44;;;31.00;31.66
12172;BME280;6149;52.418;13.668;2023-07-09T11:06:19;101636.72;;;30.95;31.42
12172;BME280;6149;52.418;13.668;2023-07-09T11:08:49;101633.72;;;30.90;32.75
12172;BME280;6149;52.418;13.668;2023-07-09T11:11:25;101627.22;;;30.91;31.39
12172;BME280;6149;52.418;13.668;2023-07-09T11:13:58;101631.66;;;30.77;32.47
12172;BME280;6149;52.418;13.668;2023-07-09T11:16:34;101630.03;;;30.83;33.21
12172;BME280;6149;52.418;13.668;2023-07-09T11:19:06;101634.09;;;30.87;31.20
12172;BME280;6149;52.418;13.668;2023-07-09T11:21:45;101627.59;;;30.88;30.77
12172;BME280;6149;52.418;13.668;2023-07-09T11:24:31;101625.34;;;30.77;31.62
12172;BME280;6149;52.418;13.668;2023-07-09T11:27:00;101623.47;;;30.63;30.36
12172;BME280;6149;52.418;13.668;2023-07-09T11:29:27;101613.44;;;30.55;32.63
12172;BME280;6149;52.418;13.668;2023-07-09T11:31:54;101609.00;;;30.54;32.08
12172;BME280;6149;52.418;13.668;2023-07-09T11:34:27;101617.81;;;30.64;32.85
12172;BME280;6149;52.418;13.668;2023-07-09T11:36:59;101610.00;;;30.61;32.79
12172;BME280;6149;52.418;13.668;2023-07-09T11:39:28;101608.81;;;30.55;33.19
12172;BME280;6149;52.418;13.668;2023-07-09T11:41:57;101609.63;;;30.64;32.14
12172;BME280;6149;52.418;13.668;2023-07-09T11:44:26;101609.63;;;30.64;32.01
12172;BME280;6149;52.418;13.668;2023-07-09T11:47:03;101605.09;;;30.56;31.73
12172;BME280;6149;52.418;13.668;2023-07-09T11:49:46;101600.41;;;30.65;32.44
12172;BME280;6149;52.418;13.668;2023-07-09T11:52:34;101605.75;;;30.73;32.57
12172;BME280;6149;52.418;13.668;2023-07-09T11:55:20;101595.88;;;30.72;32.49
12172;BME280;6149;52.418;13.668;2023-07-09T11:57:53;101590.69;;;30.77;32.72
12172;BME280;6149;52.418;13.668;2023-07-09T12:00:20;101591.44;;;30.71;32.01
12172;BME280;6149;52.418;13.668;2023-07-09T12:02:47;101587.84;;;30.56;32.44
12172;BME280;6149;52.418;13.668;2023-07-09T12:05:19;101592.44;;;30.55;31.54
12172;BME280;6149;52.418;13.668;2023-07-09T12:07:49;101592.44;;;30.55;32.67
12172;BME280;6149;52.418;13.668;2023-07-09T12:10:20;101587.50;;;30.59;31.70
12172;BME280;6149;52.418;13.668;2023-07-09T12:12:48;101582.75;;;30.53;32.23
12172;BME280;6149;52.418;13.668;2023-07-09T12:15:23;101581.28;;;30.65;32.23
12172;BME280;6149;52.418;13.668;2023-07-09T12:17:56;101584.19;;;30.78;31.56
12172;BME280;6149;52.418;13.668;2023-07-09T12:20:24;101576.19;;;30.77;30.84
12172;BME280;6149;52.418;13.668;2023-07-09T12:22:52;101575.16;;;30.78;32.45
12172;BME280;6149;52.418;13.668;2023-07-09T12:25:23;101578.97;;;30.83;31.25
12172;BME280;6149;52.418;13.668;2023-07-09T12:27:51;101570.88;;;30.90;31.54
12172;BME280;6149;52.418;13.668;2023-07-09T12:30:19;101568.00;;;30.77;31.64
12172;BME280;6149;52.418;13.668;2023-07-09T12:32:47;101571.81;;;30.82;32.12
12172;BME280;6149;52.418;13.668;2023-07-09T12:35:17;101568.25;;;30.82;32.72
12172;BME280;6149;52.418;13.668;2023-07-09T12:37:47;101561.56;;;30.84;32.60
12172;BME280;6149;52.418;13.668;2023-07-09T12:40:17;101556.00;;;30.92;31.98
12172;BME280;6149;52.418;13.668;2023-07-09T12:42:47;101553.78;;;30.81;32.84
12172;BME280;6149;52.418;13.668;2023-07-09T12:45:16;101557.03;;;30.91;32.58
12172;BME280;6149;52.418;13.668;2023-07-09T12:47:45;101559.34;;;31.09;31.40
12172;BME280;6149;52.418;13.668;2023-07-09T12:50:27;101558.63;;;31.01;31.76
12172;BME280;6149;52.418;13.668;2023-07-09T12:52:56;101552.59;;;30.90;32.31
12172;BME280;6149;52.418;13.668;2023-07-09T12:55:29;101544.78;;;30.87;32.17
12172;BME280;6149;52.418;13.668;2023-07-09T12:58:09;101538.09;;;30.90;32.88
12172;BME280;6149;52.418;13.668;2023-07-09T13:00:37;101530.72;;;31.05;33.51
12172;BME280;6149;52.418;13.668;2023-07-09T13:03:12;101528.16;;;31.18;32.59
12172;BME280;6149;52.418;13.668;2023-07-09T13:05:51;101528.75;;;31.35;32.30
12172;BME280;6149;52.418;13.668;2023-07-09T13:08:19;101530.19;;;31.52;31.55